sensor_id;sensor_type;location;lat;lon;timestamp;pressure;altitude;pressure_sealevel;temperature;humidity
61805;BME280;47725;47.912;7.356;2023-09-30T00:03:39;100119.70;;;22.30;49.27
61805;BME280;47725;47.912;7.356;2023-09-30T00:07:39;100119.67;;;22.27;48.98
61805;BME280;47725;47.912;7.356;2023-09-30T00:11:39;100119.09;;;22.24;49.72
61805;BME280;47725;47.912;7.356;2023-09-30T00:15:39;100119.10;;;22.21;49.79
61805;BME280;47725;47.912;7.356;2023-09-30T00:19:40;100120.09;;;22.18;49.89
61805;BME280;47725;47.912;7.356;2023-09-30T00:23:39;100119.96;;;22.15;49.95
61805;BME280;47725;47.912;7.356;2023-09-30T00:27:39;100117.16;;;22.12;49.78
61805;BME280;47725;47.912;7.356;2023-09-30T00:31:39;100114.11;;;22.10;50.13
61805;BME280;47725;47.912;7.356;2023-09-30T00:35:39;100111.75;;;22.07;50.41
61805;BME280;47725;47.912;7.356;2023-09-30T00:39:39;100111.49;;;22.01;50.75
61805;BME280;47725;47.912;7.356;2023-09-30T00:43:39;100112.98;;;21.99;50.33
61805;BME280;47725;47.912;7.356;2023-09-30T00:47:39;100113.64;;;22.00;50.02
61805;BME280;47725;47.912;7.356;2023-09-30T00:51:39;100112.39;;;21.99;50.41
61805;BME280;47725;47.912;7.356;2023-09-30T00:55:39;100112.38;;;21.97;50.47
61805;BME280;47725;47.912;7.356;2023-09-30T00:59:39;100113.69;;;21.95;50.45
61805;BME280;47725;47.912;7.356;2023-09-30T01:03:39;100115.04;;;21.93;50.40
61805;BME280;47725;47.912;7.356;2023-09-30T01:07:39;100114.67;;;21.92;50.23
61805;BME280;47725;47.912;7.356;2023-09-30T01:11:40;100112.77;;;21.90;50.82
61805;BME280;47725;47.912;7.356;2023-09-30T01:15:39;100110.69;;;21.87;51.30
61805;BME280;47725;47.912;7.356;2023-09-30T01:19:40;100108.95;;;21.85;51.30
61805;BME280;47725;47.912;7.356;2023-09-30T01:23:39;100107.14;;;21.83;51.05
61805;BME280;47725;47.912;7.356;2023-09-30T01:27:39;100105.56;;;21.82;51.48
61805;BME280;47725;47.912;7.356;2023-09-30T01:31:39;100108.04;;;21.79;51.72
61805;BME280;47725;47.912;7.356;2023-09-30T01:35:39;100110.18;;;21.77;51.64
61805;BME280;47725;47.912;7.356;2023-09-30T01:39:39;100110.41;;;21.74;51.88
61805;BME280;47725;47.912;7.356;2023-09-30T01:43:39;100109.83;;;21.71;51.55
61805;BME280;47725;47.912;7.356;2023-09-30T01:47:39;100109.07;;;21.70;51.72
61805;BME280;47725;47.912;7.356;2023-09-30T01:51:39;100108.89;;;21.68;51.64
61805;BME280;47725;47.912;7.356;2023-09-30T01:55:39;100109.45;;;21.68;51.54
61805;BME280;47725;47.912;7.356;2023-09-30T01:59:39;100108.61;;;21.67;51.82
61805;BME280;47725;47.912;7.356;2023-09-30T02:03:39;100107.97;;;21.65;52.00
61805;BME280;47725;47.912;7.356;2023-09-30T02:07:40;100109.78;;;21.63;52.11
61805;BME280;47725;47.912;7.356;2023-09-30T02:11:39;100109.00;;;21.61;52.15
61805;BME280;47725;47.912;7.356;2023-09-30T02:15:39;100109.34;;;21.59;52.27
61805;BME280;47725;47.912;7.356;2023-09-30T02:19:39;100109.91;;;21.56;52.10
61805;BME280;47725;47.912;7.356;2023-09-30T02:23:39;100109.07;;;21.53;52.30
61805;BME280;47725;47.912;7.356;2023-09-30T02:27:40;100108.48;;;21.50;52.00
61805;BME280;47725;47.912;7.356;2023-09-30T02:31:39;100105.94;;;21.46;52.32
61805;BME280;47725;47.912;7.356;2023-09-30T02:35:43;100105.92;;;21.43;52.42
61805;BME280;47725;47.912;7.356;2023-09-30T02:39:39;100107.81;;;21.39;52.36
61805;BME280;47725;47.912;7.356;2023-09-30T02:43:39;100110.07;;;21.35;52.42
61805;BME280;47725;47.912;7.356;2023-09-30T02:47:39;100113.70;;;21.32;52.50
61805;BME280;47725;47.912;7.356;2023-09-30T02:51:39;100116.41;;;21.30;52.98
61805;BME280;47725;47.912;7.356;2023-09-30T02:55:40;100119.29;;;21.28;52.88
61805;BME280;47725;47.912;7.356;2023-09-30T02:59:39;100123.00;;;21.25;53.00
61805;BME280;47725;47.912;7.356;2023-09-30T03:03:39;100126.29;;;21.22;52.93
61805;BME280;47725;47.912;7.356;2023-09-30T03:07:39;100129.40;;;21.20;52.88
61805;BME280;47725;47.912;7.356;2023-09-30T03:11:39;100132.95;;;21.17;53.09
61805;BME280;47725;47.912;7.356;2023-09-30T03:15:39;100137.45;;;21.14;53.02
61805;BME280;47725;47.912;7.356;2023-09-30T03:19:40;100141.58;;;21.11;53.10
61805;BME280;47725;47.912;7.356;2023-09-30T03:23:39;100143.69;;;21.07;53.13
61805;BME280;47725;47.912;7.356;2023-09-30T03:27:39;100143.41;;;21.04;53.06
61805;BME280;47725;47.912;7.356;2023-09-30T03:31:39;100137.14;;;21.01;53.32
61805;BME280;47725;47.912;7.356;2023-09-30T03:35:39;100128.17;;;20.96;53.49
61805;BME280;47725;47.912;7.356;2023-09-30T03:39:39;100120.78;;;20.90;53.87
61805;BME280;47725;47.912;7.356;2023-09-30T03:43:39;100115.80;;;20.83;54.09
61805;BME280;47725;47.912;7.356;2023-09-30T03:47:40;100109.66;;;20.74;54.31
61805;BME280;47725;47.912;7.356;2023-09-30T03:51:40;100103.78;;;20.67;54.02
61805;BME280;47725;47.912;7.356;2023-09-30T03:55:39;100099.84;;;20.59;54.15
61805;BME280;47725;47.912;7.356;2023-09-30T03:59:39;100103.05;;;20.51;54.23
61805;BME280;47725;47.912;7.356;2023-09-30T04:03:40;100106.14;;;20.44;54.09
61805;BME280;47725;47.912;7.356;2023-09-30T04:07:39;100105.80;;;20.37;54.13
61805;BME280;47725;47.912;7.356;2023-09-30T04:11:39;100107.14;;;20.31;53.96
61805;BME280;47725;47.912;7.356;2023-09-30T04:15:39;100109.47;;;20.24;54.12
61805;BME280;47725;47.912;7.356;2023-09-30T04:19:39;100112.37;;;20.18;54.19
61805;BME280;47725;47.912;7.356;2023-09-30T04:23:39;100115.01;;;20.12;54.15
61805;BME280;47725;47.912;7.356;2023-09-30T04:27:39;100120.31;;;20.06;54.17
61805;BME280;47725;47.912;7.356;2023-09-30T04:31:39;100127.97;;;19.99;54.31
61805;BME280;47725;47.912;7.356;2023-09-30T04:35:39;100135.58;;;19.93;54.34
61805;BME280;47725;47.912;7.356;2023-09-30T04:39:39;100139.95;;;19.86;54.51
61805;BME280;47725;47.912;7.356;2023-09-30T04:43:39;100143.15;;;19.79;54.34
61805;BME280;47725;47.912;7.356;2023-09-30T04:47:39;100146.69;;;19.73;54.33
61805;BME280;47725;47.912;7.356;2023-09-30T04:51:39;100150.51;;;19.68;54.32
61805;BME280;47725;47.912;7.356;2023-09-30T04:55:39;100152.62;;;19.62;54.50
61805;BME280;47725;47.912;7.356;2023-09-30T04:59:39;100158.20;;;19.55;54.75
61805;BME280;47725;47.912;7.356;2023-09-30T05:03:39;100164.81;;;19.50;54.66
61805;BME280;47725;47.912;7.356;2023-09-30T05:07:39;100169.20;;;19.44;54.95
61805;BME280;47725;47.912;7.356;2023-09-30T05:11:39;100170.45;;;19.39;55.36
61805;BME280;47725;47.912;7.356;2023-09-30T05:15:39;100171.70;;;19.30;55.83
61805;BME280;47725;47.912;7.356;2023-09-30T05:19:39;100173.65;;;19.23;55.91
61805;BME280;47725;47.912;7.356;2023-09-30T05:23:39;100174.72;;;19.18;56.10
61805;BME280;47725;47.912;7.356;2023-09-30T05:27:39;100174.72;;;19.13;56.31
61805;BME280;47725;47.912;7.356;2023-09-30T05:31:39;100175.50;;;19.08;56.58
61805;BME280;47725;47.912;7.356;2023-09-30T05:35:40;100175.24;;;19.03;56.59
61805;BME280;47725;47.912;7.356;2023-09-30T05:39:39;100174.85;;;18.99;56.39
61805;BME280;47725;47.912;7.356;2023-09-30T05:43:39;100174.52;;;18.95;56.42
61805;BME280;47725;47.912;7.356;2023-09-30T05:47:39;100176.03;;;18.86;57.07
61805;BME280;47725;47.912;7.356;2023-09-30T05:51:40;100180.22;;;18.76;57.29
61805;BME280;47725;47.912;7.356;2023-09-30T05:55:40;100189.51;;;18.69;57.00
61805;BME280;47725;47.912;7.356;2023-09-30T05:59:39;100199.41;;;18.67;56.26
61805;BME280;47725;47.912;7.356;2023-09-30T06:03:39;100205.90;;;18.65;56.86
61805;BME280;47725;47.912;7.356;2023-09-30T06:07:39;100209.46;;;18.62;56.64
61805;BME280;47725;47.912;7.356;2023-09-30T06:11:39;100211.78;;;18.58;56.91
61805;BME280;47725;47.912;7.356;2023-09-30T06:15:40;100212.95;;;18.54;57.38
61805;BME280;47725;47.912;7.356;2023-09-30T06:19:39;100213.26;;;18.50;57.25
61805;BME280;47725;47.912;7.356;2023-09-30T06:23:39;100213.18;;;18.49;57.58
61805;BME280;47725;47.912;7.356;2023-09-30T06:27:39;100213.18;;;18.49;57.12
61805;BME280;47725;47.912;7.356;2023-09-30T06:31:39;100213.58;;;18.54;56.42
61805;BME280;47725;47.912;7.356;2023-09-30T06:35:40;100214.01;;;18.61;56.32
61805;BME280;47725;47.912;7.356;2023-09-30T06:39:39;100215.80;;;18.66;56.53
61805;BME280;47725;47.912;7.356;2023-09-30T06:43:39;100216.61;;;18.71;56.28
61805;BME280;47725;47.912;7.356;2023-09-30T06:47:40;100218.86;;;18.78;56.19
61805;BME280;47725;47.912;7.356;2023-09-30T06:51:39;100222.60;;;18.84;56.22
61805;BME280;47725;47.912;7.356;2023-09-30T06:55:39;100229.75;;;18.90;56.46
61805;BME280;47725;47.912;7.356;2023-09-30T06:59:39;100237.13;;;18.98;56.21
61805;BME280;47725;47.912;7.356;2023-09-30T07:03:39;100242.71;;;19.06;56.32
61805;BME280;47725;47.912;7.356;2023-09-30T07:07:39;100247.05;;;19.13;56.19
61805;BME280;47725;47.912;7.356;2023-09-30T07:11:39;100248.80;;;19.17;57.04
61805;BME280;47725;47.912;7.356;2023-09-30T07:15:39;100248.91;;;19.21;57.03
61805;BME280;47725;47.912;7.356;2023-09-30T07:19:39;100251.72;;;19.25;56.58
61805;BME280;47725;47.912;7.356;2023-09-30T07:23:39;100253.17;;;19.29;57.25
61805;BME280;47725;47.912;7.356;2023-09-30T07:27:39;100253.96;;;19.33;56.78
61805;BME280;47725;47.912;7.356;2023-09-30T07:31:39;100253.17;;;19.39;56.69
61805;BME280;47725;47.912;7.356;2023-09-30T07:35:39;100255.72;;;19.49;55.91
61805;BME280;47725;47.912;7.356;2023-09-30T07:39:39;100261.05;;;19.56;56.33
61805;BME280;47725;47.912;7.356;2023-09-30T07:43:39;100267.15;;;19.64;56.52
61805;BME280;47725;47.912;7.356;2023-09-30T07:47:39;100269.28;;;19.72;56.26
61805;BME280;47725;47.912;7.356;2023-09-30T07:51:39;100272.41;;;19.81;56.13
61805;BME280;47725;47.912;7.356;2023-09-30T07:55:39;100278.02;;;19.92;55.72
61805;BME280;47725;47.912;7.356;2023-09-30T07:59:39;100280.42;;;20.06;55.51
61805;BME280;47725;47.912;7.356;2023-09-30T08:03:39;100280.36;;;20.17;55.34
61805;BME280;47725;47.912;7.356;2023-09-30T08:07:39;100277.20;;;20.28;55.83
61805;BME280;47725;47.912;7.356;2023-09-30T08:11:39;100275.42;;;20.40;55.41
61805;BME280;47725;47.912;7.356;2023-09-30T08:15:39;100272.43;;;20.51;55.35
61805;BME280;47725;47.912;7.356;2023-09-30T08:19:39;100270.67;;;20.63;54.95
61805;BME280;47725;47.912;7.356;2023-09-30T08:23:39;100269.04;;;20.74;55.20
61805;BME280;47725;47.912;7.356;2023-09-30T08:27:39;100268.74;;;20.85;54.95
61805;BME280;47725;47.912;7.356;2023-09-30T08:31:39;100271.66;;;20.96;54.79
61805;BME280;47725;47.912;7.356;2023-09-30T08:35:39;100277.35;;;21.07;54.46
61805;BME280;47725;47.912;7.356;2023-09-30T08:39:39;100282.03;;;21.20;54.31
61805;BME280;47725;47.912;7.356;2023-09-30T08:43:39;100283.91;;;21.33;54.05
61805;BME280;47725;47.912;7.356;2023-09-30T08:47:39;100283.69;;;21.46;53.74
61805;BME280;47725;47.912;7.356;2023-09-30T08:51:39;100283.33;;;21.60;53.47
61805;BME280;47725;47.912;7.356;2023-09-30T08:55:39;100284.85;;;21.73;53.35
61805;BME280;47725;47.912;7.356;2023-09-30T08:59:40;100286.03;;;21.83;53.46
61805;BME280;47725;47.912;7.356;2023-09-30T09:03:39;100284.98;;;21.97;53.15
61805;BME280;47725;47.912;7.356;2023-09-30T09:07:39;100283.53;;;22.15;52.50
61805;BME280;47725;47.912;7.356;2023-09-30T09:11:39;100280.08;;;22.48;50.15
61805;BME280;47725;47.912;7.356;2023-09-30T09:15:39;100276.45;;;22.76;49.34
61805;BME280;47725;47.912;7.356;2023-09-30T09:19:39;100270.79;;;23.07;48.90
61805;BME280;47725;47.912;7.356;2023-09-30T09:23:48;100264.26;;;23.51;47.39
61805;BME280;47725;47.912;7.356;2023-09-30T09:27:39;100257.21;;;23.84;47.58
61805;BME280;47725;47.912;7.356;2023-09-30T09:31:39;100250.75;;;24.16;47.18
61805;BME280;47725;47.912;7.356;2023-09-30T09:35:39;100245.42;;;24.44;46.23
61805;BME280;47725;47.912;7.356;2023-09-30T09:39:39;100240.09;;;24.63;46.49
61805;BME280;47725;47.912;7.356;2023-09-30T09:43:41;100234.59;;;24.94;44.86
61805;BME280;47725;47.912;7.356;2023-09-30T09:47:39;100228.72;;;25.36;44.19
61805;BME280;47725;47.912;7.356;2023-09-30T09:51:39;100224.76;;;25.61;44.99
61805;BME280;47725;47.912;7.356;2023-09-30T09:55:39;100222.22;;;25.66;44.82
61805;BME280;47725;47.912;7.356;2023-09-30T09:59:39;100221.19;;;25.61;46.30
61805;BME280;47725;47.912;7.356;2023-09-30T10:03:39;100219.38;;;25.56;46.29
61805;BME280;47725;47.912;7.356;2023-09-30T10:07:40;100217.30;;;25.56;46.15
61805;BME280;47725;47.912;7.356;2023-09-30T10:11:39;100214.22;;;25.58;45.20
61805;BME280;47725;47.912;7.356;2023-09-30T10:15:39;100211.36;;;25.59;45.06
61805;BME280;47725;47.912;7.356;2023-09-30T10:23:39;100202.91;;;25.56;45.19
61805;BME280;47725;47.912;7.356;2023-09-30T10:27:39;100199.13;;;25.59;44.27
61805;BME280;47725;47.912;7.356;2023-09-30T10:31:50;100197.03;;;25.63;43.89
61805;BME280;47725;47.912;7.356;2023-09-30T10:35:42;100194.95;;;25.68;41.94
61805;BME280;47725;47.912;7.356;2023-09-30T10:39:57;100193.83;;;25.73;43.00
61805;BME280;47725;47.912;7.356;2023-09-30T10:43:39;100192.80;;;25.78;42.35
61805;BME280;47725;47.912;7.356;2023-09-30T10:47:39;100190.69;;;25.85;41.59
61805;BME280;47725;47.912;7.356;2023-09-30T10:51:39;100188.47;;;25.90;41.71
61805;BME280;47725;47.912;7.356;2023-09-30T10:55:39;100185.52;;;25.95;42.04
61805;BME280;47725;47.912;7.356;2023-09-30T10:59:39;100184.38;;;26.00;41.49
61805;BME280;47725;47.912;7.356;2023-09-30T11:03:39;100182.67;;;26.06;40.44
61805;BME280;47725;47.912;7.356;2023-09-30T11:07:39;100181.91;;;26.13;38.92
61805;BME280;47725;47.912;7.356;2023-09-30T11:11:40;100183.37;;;26.22;39.11
61805;BME280;47725;47.912;7.356;2023-09-30T11:15:39;100184.89;;;26.33;38.10
61805;BME280;47725;47.912;7.356;2023-09-30T11:19:48;100185.25;;;26.42;38.19
61805;BME280;47725;47.912;7.356;2023-09-30T11:23:40;100184.09;;;26.48;37.14
61805;BME280;47725;47.912;7.356;2023-09-30T11:27:39;100183.58;;;26.54;38.08
61805;BME280;47725;47.912;7.356;2023-09-30T11:31:39;100181.31;;;26.63;36.73
61805;BME280;47725;47.912;7.356;2023-09-30T11:35:39;100178.20;;;26.72;37.44
61805;BME280;47725;47.912;7.356;2023-09-30T11:39:39;100175.73;;;26.81;37.03
61805;BME280;47725;47.912;7.356;2023-09-30T11:43:39;100173.18;;;26.88;36.54
61805;BME280;47725;47.912;7.356;2023-09-30T11:47:39;100169.81;;;26.96;37.00
61805;BME280;47725;47.912;7.356;2023-09-30T11:51:42;100165.09;;;27.04;36.51
61805;BME280;47725;47.912;7.356;2023-09-30T11:55:39;100160.85;;;27.09;34.66
61805;BME280;47725;47.912;7.356;2023-09-30T11:59:39;100156.43;;;27.13;33.77
61805;BME280;47725;47.912;7.356;2023-09-30T12:03:39;100152.47;;;27.19;35.50
61805;BME280;47725;47.912;7.356;2023-09-30T12:07:39;100149.24;;;27.25;34.96
61805;BME280;47725;47.912;7.356;2023-09-30T12:11:39;100146.95;;;27.30;35.12
61805;BME280;47725;47.912;7.356;2023-09-30T12:15:39;100144.23;;;27.35;34.31
61805;BME280;47725;47.912;7.356;2023-09-30T12:19:39;100141.00;;;27.42;34.36
61805;BME280;47725;47.912;7.356;2023-09-30T12:23:39;100136.47;;;27.49;34.08
61805;BME280;47725;47.912;7.356;2023-09-30T12:27:39;100132.84;;;27.55;34.26
61805;BME280;47725;47.912;7.356;2023-09-30T12:31:39;100129.16;;;27.65;33.59
61805;BME280;47725;47.912;7.356;2023-09-30T12:35:41;100124.78;;;27.73;34.19
61805;BME280;47725;47.912;7.356;2023-09-30T12:39:39;100119.50;;;27.82;33.75
61805;BME280;47725;47.912;7.356;2023-09-30T12:43:39;100116.88;;;27.91;33.85
61805;BME280;47725;47.912;7.356;2023-09-30T12:47:39;100114.96;;;28.01;33.21
61805;BME280;47725;47.912;7.356;2023-09-30T12:51:39;100114.20;;;28.08;33.61
61805;BME280;47725;47.912;7.356;2023-09-30T12:55:39;100114.49;;;28.15;33.87
61805;BME280;47725;47.912;7.356;2023-09-30T12:59:45;100115.48;;;28.20;33.02
61805;BME280;47725;47.912;7.356;2023-09-30T13:03:39;100115.58;;;28.25;32.63
61805;BME280;47725;47.912;7.356;2023-09-30T13:07:39;100115.94;;;28.29;32.88
61805;BME280;47725;47.912;7.356;2023-09-30T13:11:39;100116.67;;;28.25;33.28
61805;BME280;47725;47.912;7.356;2023-09-30T13:15:39;100116.58;;;28.17;33.32
61805;BME280;47725;47.912;7.356;2023-09-30T13:19:39;100114.59;;;28.10;33.37
61805;BME280;47725;47.912;7.356;2023-09-30T13:23:39;100112.96;;;28.09;32.97
61805;BME280;47725;47.912;7.356;2023-09-30T13:27:39;100109.06;;;28.07;32.81
61805;BME280;47725;47.912;7.356;2023-09-30T13:31:39;100106.89;;;28.07;32.88
61805;BME280;47725;47.912;7.356;2023-09-30T13:35:39;100105.40;;;28.10;32.47
61805;BME280;47725;47.912;7.356;2023-09-30T13:39:39;100104.00;;;28.14;31.95
61805;BME280;47725;47.912;7.356;2023-09-30T13:43:39;100102.76;;;28.19;31.80
61805;BME280;47725;47.912;7.356;2023-09-30T13:47:39;100101.79;;;28.23;31.02
61805;BME280;47725;47.912;7.356;2023-09-30T13:51:39;100100.59;;;28.24;31.72
61805;BME280;47725;47.912;7.356;2023-09-30T13:55:39;100098.13;;;28.25;31.93
61805;BME280;47725;47.912;7.356;2023-09-30T13:59:39;100095.15;;;28.27;31.79
61805;BME280;47725;47.912;7.356;2023-09-30T14:03:39;100091.49;;;28.27;31.73
61805;BME280;47725;47.912;7.356;2023-09-30T14:07:39;100088.31;;;28.27;32.12
61805;BME280;47725;47.912;7.356;2023-09-30T14:11:39;100086.10;;;28.28;31.67
61805;BME280;47725;47.912;7.356;2023-09-30T14:15:39;100082.76;;;28.29;32.06
61805;BME280;47725;47.912;7.356;2023-09-30T14:19:39;100079.55;;;28.31;32.14
61805;BME280;47725;47.912;7.356;2023-09-30T14:23:42;100075.95;;;28.30;31.78
61805;BME280;47725;47.912;7.356;2023-09-30T14:27:39;100072.09;;;28.26;32.61
61805;BME280;47725;47.912;7.356;2023-09-30T14:31:39;100068.66;;;28.23;32.23
61805;BME280;47725;47.912;7.356;2023-09-30T14:35:39;100066.02;;;28.23;32.10
61805;BME280;47725;47.912;7.356;2023-09-30T14:39:39;100063.64;;;28.22;31.87
61805;BME280;47725;47.912;7.356;2023-09-30T14:43:39;100061.41;;;28.19;31.72
61805;BME280;47725;47.912;7.356;2023-09-30T14:47:39;100059.77;;;28.15;31.43
61805;BME280;47725;47.912;7.356;2023-09-30T14:51:41;100057.78;;;28.10;32.22
61805;BME280;47725;47.912;7.356;2023-09-30T14:55:42;100056.92;;;28.01;32.45
61805;BME280;47725;47.912;7.356;2023-09-30T14:59:39;100056.47;;;27.95;32.57
61805;BME280;47725;47.912;7.356;2023-09-30T15:03:39;100056.37;;;27.90;32.33
61805;BME280;47725;47.912;7.356;2023-09-30T15:07:39;100057.09;;;27.84;33.13
61805;BME280;47725;47.912;7.356;2023-09-30T15:11:39;100057.67;;;27.81;32.58
61805;BME280;47725;47.912;7.356;2023-09-30T15:15:42;100058.56;;;27.78;32.86
61805;BME280;47725;47.912;7.356;2023-09-30T15:19:39;100060.91;;;27.73;33.19
61805;BME280;47725;47.912;7.356;2023-09-30T15:23:39;100062.18;;;27.69;33.17
61805;BME280;47725;47.912;7.356;2023-09-30T15:27:39;100062.59;;;27.62;33.40
61805;BME280;47725;47.912;7.356;2023-09-30T15:31:39;100062.25;;;27.54;33.74
61805;BME280;47725;47.912;7.356;2023-09-30T15:35:39;100062.08;;;27.46;34.18
61805;BME280;47725;47.912;7.356;2023-09-30T15:39:41;100061.97;;;27.37;33.86
61805;BME280;47725;47.912;7.356;2023-09-30T15:43:39;100061.45;;;27.28;33.86
61805;BME280;47725;47.912;7.356;2023-09-30T15:47:45;100062.80;;;27.19;33.99
61805;BME280;47725;47.912;7.356;2023-09-30T15:51:39;100064.29;;;27.10;34.16
61805;BME280;47725;47.912;7.356;2023-09-30T15:55:39;100065.10;;;27.00;34.39
61805;BME280;47725;47.912;7.356;2023-09-30T15:59:39;100065.36;;;26.88;34.84
61805;BME280;47725;47.912;7.356;2023-09-30T16:03:39;100065.11;;;26.75;35.10
61805;BME280;47725;47.912;7.356;2023-09-30T16:07:39;100065.87;;;26.62;35.51
61805;BME280;47725;47.912;7.356;2023-09-30T16:11:39;100067.30;;;26.49;35.79
61805;BME280;47725;47.912;7.356;2023-09-30T16:15:39;100070.06;;;26.38;35.84
61805;BME280;47725;47.912;7.356;2023-09-30T16:19:39;100073.63;;;26.29;36.12
61805;BME280;47725;47.912;7.356;2023-09-30T16:23:39;100076.54;;;26.19;36.40
61805;BME280;47725;47.912;7.356;2023-09-30T16:27:39;100079.17;;;26.10;36.61
61805;BME280;47725;47.912;7.356;2023-09-30T16:31:39;100082.01;;;26.02;36.79
61805;BME280;47725;47.912;7.356;2023-09-30T16:35:39;100084.80;;;25.93;37.08
61805;BME280;47725;47.912;7.356;2023-09-30T16:39:39;100086.30;;;25.85;37.11
61805;BME280;47725;47.912;7.356;2023-09-30T16:43:39;100087.57;;;25.78;37.14
61805;BME280;47725;47.912;7.356;2023-09-30T16:47:47;100087.08;;;25.70;37.28
61805;BME280;47725;47.912;7.356;2023-09-30T16:51:42;100087.50;;;25.62;37.51
61805;BME280;47725;47.912;7.356;2023-09-30T16:55:39;100088.76;;;25.52;37.85
61805;BME280;47725;47.912;7.356;2023-09-30T16:59:41;100089.85;;;25.41;38.19
61805;BME280;47725;47.912;7.356;2023-09-30T17:03:39;100091.72;;;25.30;38.23
61805;BME280;47725;47.912;7.356;2023-09-30T17:07:41;100092.35;;;25.20;38.28
61805;BME280;47725;47.912;7.356;2023-09-30T17:11:39;100093.38;;;25.10;38.55
61805;BME280;47725;47.912;7.356;2023-09-30T17:15:41;100095.40;;;25.00;38.71
61805;BME280;47725;47.912;7.356;2023-09-30T17:19:39;100095.89;;;24.88;38.88
61805;BME280;47725;47.912;7.356;2023-09-30T17:23:39;100097.52;;;24.77;39.08
61805;BME280;47725;47.912;7.356;2023-09-30T17:27:39;100100.17;;;24.65;39.23
61805;BME280;47725;47.912;7.356;2023-09-30T17:31:39;100102.78;;;24.54;39.44
61805;BME280;47725;47.912;7.356;2023-09-30T17:35:39;100104.97;;;24.42;39.28
61805;BME280;47725;47.912;7.356;2023-09-30T17:39:39;100106.09;;;24.31;39.42
61805;BME280;47725;47.912;7.356;2023-09-30T17:43:39;100106.36;;;24.19;39.39
61805;BME280;47725;47.912;7.356;2023-09-30T17:47:39;100106.16;;;24.08;39.65
61805;BME280;47725;47.912;7.356;2023-09-30T17:51:39;100105.78;;;23.97;39.74
61805;BME280;47725;47.912;7.356;2023-09-30T17:55:39;100105.76;;;23.86;39.95
61805;BME280;47725;47.912;7.356;2023-09-30T17:59:45;100106.36;;;23.77;39.93
61805;BME280;47725;47.912;7.356;2023-09-30T18:03:44;100107.12;;;23.68;40.20
61805;BME280;47725;47.912;7.356;2023-09-30T18:07:39;100107.67;;;23.57;40.63
61805;BME280;47725;47.912;7.356;2023-09-30T18:11:39;100109.19;;;23.46;40.93
61805;BME280;47725;47.912;7.356;2023-09-30T18:15:39;100110.99;;;23.35;41.10
61805;BME280;47725;47.912;7.356;2023-09-30T18:19:38;100113.98;;;23.24;41.29
61805;BME280;47725;47.912;7.356;2023-09-30T18:23:39;100117.91;;;23.13;41.51
61805;BME280;47725;47.912;7.356;2023-09-30T18:27:39;100123.16;;;23.03;41.95
61805;BME280;47725;47.912;7.356;2023-09-30T18:31:39;100126.73;;;22.92;42.18
61805;BME280;47725;47.912;7.356;2023-09-30T18:35:39;100130.28;;;22.81;42.44
61805;BME280;47725;47.912;7.356;2023-09-30T18:39:38;100131.30;;;22.71;42.60
61805;BME280;47725;47.912;7.356;2023-09-30T18:43:38;100131.02;;;22.58;43.34
61805;BME280;47725;47.912;7.356;2023-09-30T18:47:38;100131.81;;;22.47;43.16
61805;BME280;47725;47.912;7.356;2023-09-30T18:51:38;100131.84;;;22.38;43.69
61805;BME280;47725;47.912;7.356;2023-09-30T18:55:39;100133.10;;;22.25;44.37
61805;BME280;47725;47.912;7.356;2023-09-30T18:59:38;100135.39;;;22.16;44.38
61805;BME280;47725;47.912;7.356;2023-09-30T19:03:38;100139.00;;;22.07;44.62
61805;BME280;47725;47.912;7.356;2023-09-30T19:07:38;100143.18;;;21.97;44.92
61805;BME280;47725;47.912;7.356;2023-09-30T19:11:38;100146.72;;;21.90;44.91
61805;BME280;47725;47.912;7.356;2023-09-30T19:15:38;100150.05;;;21.80;45.25
61805;BME280;47725;47.912;7.356;2023-09-30T19:19:38;100153.91;;;21.74;45.09
61805;BME280;47725;47.912;7.356;2023-09-30T19:23:38;100157.33;;;21.69;44.81
61805;BME280;47725;47.912;7.356;2023-09-30T19:27:39;100159.81;;;21.64;45.12
61805;BME280;47725;47.912;7.356;2023-09-30T19:31:38;100161.69;;;21.58;45.31
61805;BME280;47725;47.912;7.356;2023-09-30T19:35:38;100164.26;;;21.52;45.43
61805;BME280;47725;47.912;7.356;2023-09-30T19:39:38;100166.19;;;21.45;45.49
61805;BME280;47725;47.912;7.356;2023-09-30T19:43:38;100166.49;;;21.37;45.65
61805;BME280;47725;47.912;7.356;2023-09-30T19:47:38;100167.50;;;21.30;46.07
61805;BME280;47725;47.912;7.356;2023-09-30T19:51:38;100167.66;;;21.21;46.24
61805;BME280;47725;47.912;7.356;2023-09-30T19:55:38;100168.61;;;21.13;46.34
61805;BME280;47725;47.912;7.356;2023-09-30T19:59:41;100169.39;;;21.04;46.92
61805;BME280;47725;47.912;7.356;2023-09-30T20:03:38;100171.44;;;20.95;47.04
61805;BME280;47725;47.912;7.356;2023-09-30T20:07:38;100173.13;;;20.88;46.90
61805;BME280;47725;47.912;7.356;2023-09-30T20:11:38;100172.72;;;20.81;46.86
61805;BME280;47725;47.912;7.356;2023-09-30T20:15:38;100172.89;;;20.74;47.55
61805;BME280;47725;47.912;7.356;2023-09-30T20:19:38;100172.66;;;20.65;47.73
61805;BME280;47725;47.912;7.356;2023-09-30T20:23:39;100173.11;;;20.57;47.84
61805;BME280;47725;47.912;7.356;2023-09-30T20:27:38;100174.31;;;20.47;48.02
61805;BME280;47725;47.912;7.356;2023-09-30T20:31:38;100174.06;;;20.37;48.62
61805;BME280;47725;47.912;7.356;2023-09-30T20:35:39;100174.63;;;20.30;48.33
61805;BME280;47725;47.912;7.356;2023-09-30T20:39:38;100174.02;;;20.20;49.35
61805;BME280;47725;47.912;7.356;2023-09-30T20:43:41;100174.88;;;20.10;49.39
61805;BME280;47725;47.912;7.356;2023-09-30T20:47:38;100175.37;;;20.03;50.19
61805;BME280;47725;47.912;7.356;2023-09-30T20:51:38;100178.02;;;19.96;50.08
61805;BME280;47725;47.912;7.356;2023-09-30T20:55:38;100180.98;;;19.89;50.29
61805;BME280;47725;47.912;7.356;2023-09-30T20:59:38;100184.26;;;19.80;50.62